Time;durP1;ratioP1;P1;durP2;ratioP2;P2;SDS_P1;SDS_P2;PMS_P1;PMS_P2;Temp;Humidity;BMP_temperature;BMP_pressure;BME280_temperature;BME280_humidity;BME280_pressure;Samples;Min_cycle;Max_cycle;Signal;HPM_P1;HPM_P2
2022/08/12 00:43:44;;;;;;;4.30;1.85;;;;;;;18.62;56.11;96518.63;5033516;28;20068;-68
2022/08/12 00:48:57;;;;;;;7.20;2.05;;;;;;;18.51;56.34;96518.53;5033693;28;20060;-72
2022/08/12 00:52:04;;;;;;;8.23;1.70;;;;;;;18.46;56.60;96521.50;5033773;28;20046;-65
2022/08/12 00:54:13;;;;;;;7.22;2.28;;;;;;;18.39;56.63;96517.59;5033506;28;20046;-61
2022/08/12 00:56:41;;;;;;;6.38;2.97;;;;;;;18.35;56.91;96524.91;5033509;28;20049;-67
2022/08/12 00:59:09;;;;;;;4.55;1.92;;;;;;;18.32;56.95;96517.19;5033504;28;20099;-67
2022/08/12 01:01:38;;;;;;;3.13;2.83;;;;;;;18.30;57.14;96517.28;5033487;28;20057;-68
2022/08/12 01:12:42;;;;;;;3.08;1.88;;;;;;;17.98;58.16;96517.69;4972547;28;20089;-68
2022/08/12 01:15:12;;;;;;;3.28;2.25;;;;;;;17.93;58.17;96520.66;5006826;28;20128;-65
2022/08/12 01:17:44;;;;;;;3.65;2.10;;;;;;;17.89;58.53;96513.03;5033174;28;20128;-65
2022/08/12 01:20:33;;;;;;;2.97;1.80;;;;;;;17.85;58.69;96511.53;5033214;28;20550;-66
2022/08/12 01:23:26;;;;;;;5.25;2.55;;;;;;;17.79;58.86;96511.00;5033076;28;20060;-65
2022/08/12 01:25:57;;;;;;;3.22;1.85;;;;;;;17.73;59.05;96507.94;5033163;28;20053;-64
2022/08/12 01:28:27;;;;;;;2.30;2.13;;;;;;;17.71;59.38;96508.03;5033031;28;20479;-62
2022/08/12 01:30:55;;;;;;;5.55;2.17;;;;;;;17.63;59.73;96508.53;5033241;28;20055;-63
2022/08/12 01:33:25;;;;;;;3.58;1.95;;;;;;;17.55;59.63;96506.41;5032928;28;20108;-65
2022/08/12 01:35:59;;;;;;;4.90;2.40;;;;;;;17.53;59.83;96502.19;5032986;28;20522;-67
2022/08/12 01:38:26;;;;;;;8.43;2.38;;;;;;;17.49;59.91;96500.69;5033061;28;20073;-64
2022/08/12 01:40:59;;;;;;;3.88;2.00;;;;;;;17.43;60.17;96497.50;5032907;28;20081;-65
2022/08/12 01:43:27;;;;;;;4.45;1.92;;;;;;;17.39;60.37;96495.16;5033033;28;20048;-69
2022/08/12 01:46:06;;;;;;;3.45;1.83;;;;;;;17.33;60.48;96500.88;5032817;28;20049;-69
2022/08/12 01:48:56;;;;;;;4.15;1.92;;;;;;;17.35;60.40;96491.03;5032803;28;20049;-65
2022/08/12 01:51:39;;;;;;;2.22;1.90;;;;;;;17.38;60.06;96491.69;5032910;28;20176;-64
2022/08/12 01:54:09;;;;;;;7.15;2.08;;;;;;;17.40;60.33;96495.06;5032750;28;20045;-65
2022/08/12 01:56:48;;;;;;;2.40;1.83;;;;;;;17.50;60.14;96503.25;5036825;28;20537;-64
2022/08/12 02:02:10;;;;;;;2.55;2.00;;;;;;;17.50;60.39;96494.44;5036759;28;20060;-65
2022/08/12 02:13:50;;;;;;;4.50;2.22;;;;;;;17.45;60.71;96484.19;5036727;28;20514;-65
2022/08/12 02:16:31;;;;;;;3.50;2.22;;;;;;;17.41;60.58;96470.34;5036531;28;20063;-63
2022/08/12 02:19:11;;;;;;;1.95;1.70;;;;;;;17.40;60.63;96481.00;5036616;28;20446;-65
2022/08/12 02:21:45;;;;;;;6.68;1.92;;;;;;;17.45;60.67;96481.53;5036414;28;20049;-63
2022/08/12 02:24:16;;;;;;;4.18;2.20;;;;;;;17.46;60.28;96483.22;5036251;28;20120;-65
2022/08/12 02:26:46;;;;;;;3.95;1.83;;;;;;;17.48;60.48;96477.84;5036260;28;20053;-65
2022/08/12 02:29:15;;;;;;;;;;;;;;;17.51;60.36;96483.78;5036806;28;20041;-64
2022/08/12 02:31:44;;;;;;;1.70;1.60;;;;;;;17.52;60.44;96492.56;5036288;28;19921;-62
2022/08/12 02:34:13;;;;;;;2.83;1.70;;;;;;;17.55;60.63;96497.66;5036133;28;20042;-71
2022/08/12 02:36:40;;;;;;;2.33;2.10;;;;;;;17.58;60.39;96488.66;5036149;28;20045;-67
2022/08/12 02:39:08;;;;;;;6.10;2.10;;;;;;;17.59;60.36;96483.25;5036111;28;20092;-64
2022/08/12 02:41:42;;;;;;;2.10;1.90;;;;;;;17.55;60.51;96495.00;5036051;28;20048;-67
2022/08/12 02:44:10;;;;;;;3.17;2.30;;;;;;;17.52;60.65;96487.28;5035798;28;20050;-65
2022/08/12 02:46:41;;;;;;;1.88;1.77;;;;;;;17.44;60.70;96493.06;5035976;28;20555;-64
2022/08/12 02:49:13;;;;;;;2.03;1.90;;;;;;;17.42;60.88;96487.88;5035937;28;20049;-69
2022/08/12 02:51:44;;;;;;;3.47;1.80;;;;;;;17.39;60.92;96488.09;5035860;28;20100;-66
2022/08/12 02:54:11;;;;;;;5.70;2.05;;;;;;;17.37;60.92;96489.97;5035936;28;20149;-66
2022/08/12 02:56:41;;;;;;;3.17;2.08;;;;;;;17.30;61.28;96488.69;5035790;28;20076;-69
2022/08/12 02:59:09;;;;;;;3.58;2.10;;;;;;;17.28;61.28;96499.38;5035673;28;20053;-66
2022/08/12 03:01:43;;;;;;;5.78;2.15;;;;;;;17.27;61.45;96496.81;5035690;28;20416;-61
2022/08/12 03:04:18;;;;;;;5.13;2.15;;;;;;;17.18;61.66;96504.41;5035653;28;20104;-63
2022/08/12 03:06:51;;;;;;;3.17;2.25;;;;;;;17.15;61.93;96499.34;5035077;28;20046;-67
2022/08/12 03:09:20;;;;;;;7.80;2.35;;;;;;;17.15;61.77;96501.13;5035600;28;20132;-64
2022/08/12 03:11:55;;;;;;;4.65;2.40;;;;;;;17.04;62.08;96502.63;5035443;28;20128;-66
2022/08/12 03:14:25;;;;;;;2.22;2.03;;;;;;;16.97;62.43;96501.34;5035523;28;20387;-69
2022/08/12 03:17:08;;;;;;;3.95;2.10;;;;;;;16.90;62.49;96498.25;5035507;28;20084;-70
2022/08/12 03:19:37;;;;;;;8.68;1.92;;;;;;;16.89;62.54;96493.91;5035451;28;20174;-66
2022/08/12 03:22:11;;;;;;;2.70;2.13;;;;;;;16.83;62.73;96499.59;5035387;28;20047;-65
2022/08/12 03:24:42;;;;;;;5.03;2.33;;;;;;;16.78;62.78;96494.63;5035198;28;20053;-65
2022/08/12 03:27:11;;;;;;;2.40;1.92;;;;;;;16.78;63.09;96493.75;5035297;28;20192;-66
2022/08/12 03:29:39;;;;;;;4.70;1.92;;;;;;;16.75;63.03;96493.94;5035229;28;20041;-63
2022/08/12 03:32:08;;;;;;;4.22;2.20;;;;;;;16.75;63.08;96502.72;5035124;28;20498;-65
2022/08/12 03:34:36;;;;;;;3.08;2.05;;;;;;;16.71;63.15;96498.59;5035080;28;20049;-64
2022/08/12 03:37:05;;;;;;;7.82;2.30;;;;;;;16.71;63.40;96501.25;5034980;28;20506;-67
2022/08/12 03:39:40;;;;;;;2.08;1.88;;;;;;;16.72;63.33;96502.06;5034909;28;20053;-66
2022/08/12 03:42:26;;;;;;;4.63;2.15;;;;;;;16.65;63.37;96493.69;5034926;28;20053;-70
2022/08/12 04:01:43;;;;;;;2.35;2.00;;;;;;;17.12;62.69;96510.09;5034631;28;20470;-70
2022/08/12 04:04:11;;;;;;;2.85;2.40;;;;;;;17.74;61.16;96505.19;5034662;28;20152;-66
2022/08/12 04:06:44;;;;;;;3.80;2.13;;;;;;;18.38;59.21;96506.16;5034294;28;20053;-66
2022/08/12 04:09:13;;;;;;;6.70;1.63;;;;;;;18.94;57.50;96515.44;5034498;28;20053;-71
2022/08/12 04:14:27;;;;;;;4.65;1.98;;;;;;;19.85;54.81;96513.31;5034505;28;20141;-67
2022/08/12 04:16:56;;;;;;;3.00;1.67;;;;;;;20.18;53.75;96512.56;5033897;28;20053;-67
2022/08/12 04:19:25;;;;;;;2.97;1.90;;;;;;;20.49;53.38;96524.38;5034119;28;20048;-67
2022/08/12 04:21:54;;;;;;;9.88;2.03;;;;;;;20.78;52.25;96518.59;5034248;28;20418;-66
2022/08/12 04:24:23;;;;;;;4.22;1.90;;;;;;;21.15;51.58;96528.94;5034259;28;20053;-65
2022/08/12 04:26:50;;;;;;;2.42;1.95;;;;;;;21.50;50.89;96520.84;5033950;28;20136;-66
2022/08/12 04:29:20;;;;;;;3.15;1.50;;;;;;;21.82;50.24;96522.63;5033921;28;20053;-67
2022/08/12 04:31:48;;;;;;;3.58;1.67;;;;;;;22.21;49.43;96522.03;5033975;28;20060;-68
2022/08/12 04:34:17;;;;;;;5.38;1.70;;;;;;;22.51;48.66;96517.69;5034108;28;20136;-67
2022/08/12 04:36:45;;;;;;;2.13;1.67;;;;;;;22.80;47.98;96524.13;5033951;28;20495;-66
2022/08/12 04:39:13;;;;;;;6.75;1.73;;;;;;;23.15;47.27;96520.13;5033945;28;20084;-66
2022/08/12 04:41:43;;;;;;;4.15;1.77;;;;;;;23.45;46.33;96523.69;5033809;28;20049;-62
2022/08/12 04:44:10;;;;;;;2.22;1.60;;;;;;;23.82;45.26;96521.31;5033823;28;20404;-66
2022/08/12 04:46:37;;;;;;;2.80;1.70;;;;;;;24.16;44.65;96520.84;5033652;28;20060;-67
2022/08/12 04:49:05;;;;;;;6.47;1.52;;;;;;;24.51;44.38;96520.31;5033737;28;20125;-64
2022/08/12 04:51:33;;;;;;;4.32;1.90;;;;;;;24.82;43.86;96504.84;5033698;28;20479;-69
2022/08/12 04:54:03;;;;;;;3.75;1.90;;;;;;;25.17;43.61;96517.63;5033637;28;20046;-65
2022/08/12 04:56:31;;;;;;;3.70;1.50;;;;;;;25.47;42.66;96516.38;5033575;28;20064;-62
2022/08/12 04:58:59;;;;;;;1.85;1.45;;;;;;;25.79;42.81;96508.81;5033510;28;20084;-65
2022/08/12 05:01:29;;;;;;;3.45;1.63;;;;;;;25.97;42.17;96514.16;5033386;28;20045;-67
2022/08/12 05:03:57;;;;;;;1.85;1.50;;;;;;;26.26;42.42;96506.81;5033462;28;20045;-66
2022/08/12 05:06:25;;;;;;;5.70;1.60;;;;;;;26.65;41.30;96512.72;5033050;28;20088;-65
2022/08/12 05:08:54;;;;;;;1.77;1.60;;;;;;;27.04;40.99;96509.56;5033335;28;20060;-65
2022/08/12 05:11:24;;;;;;;2.78;1.58;;;;;;;27.42;40.93;96516.34;5033249;28;20049;-67
2022/08/12 05:13:57;;;;;;;1.87;1.73;;;;;;;27.81;39.75;96514.88;5033281;28;20092;-66
2022/08/12 05:16:25;;;;;;;2.47;1.65;;;;;;;28.13;38.30;96510.47;5033238;28;20287;-67
2022/08/12 05:18:52;;;;;;;1.50;1.40;;;;;;;28.43;37.17;96513.47;5033280;28;20053;-63
2022/08/12 05:21:20;;;;;;;2.85;1.33;;;;;;;28.78;37.97;96510.50;5033373;28;20045;-66
2022/08/12 05:23:48;;;;;;;1.50;1.40;;;;;;;29.08;35.84;96509.88;5033200;28;20454;-67
2022/08/12 05:26:15;;;;;;;7.30;1.85;;;;;;;29.18;33.91;96510.50;5033114;28;20463;-66
2022/08/12 05:28:45;;;;;;;4.40;1.70;;;;;;;29.39;34.37;96511.69;5032737;28;20053;-64
2022/08/12 05:31:13;;;;;;;1.90;1.57;;;;;;;29.72;36.02;96516.03;5032754;28;20049;-66
2022/08/12 05:33:44;;;;;;;1.75;1.50;;;;;;;29.87;33.48;96511.53;5033028;28;20275;-67
2022/08/12 05:36:14;;;;;;;3.45;1.70;;;;;;;30.07;32.92;96504.78;5032914;28;20499;-67
2022/08/12 05:38:57;;;;;;;2.15;1.73;;;;;;;30.31;32.79;96514.50;5032952;28;20085;-66
2022/08/12 05:41:26;;;;;;;1.98;1.15;;;;;;;30.51;31.31;96511.25;5033017;28;20075;-68
2022/08/12 05:43:57;;;;;;;1.92;1.58;;;;;;;30.69;31.27;96510.91;5033051;28;20077;-64
2022/08/12 05:46:26;;;;;;;3.42;1.40;;;;;;;30.70;32.08;96512.56;5032710;28;20060;-69
2022/08/12 05:48:55;;;;;;;1.98;1.52;;;;;;;30.57;31.44;96506.97;5032906;28;20483;-66
2022/08/12 05:51:23;;;;;;;2.85;1.52;;;;;;;30.77;31.74;96513.53;5032872;28;20041;-65
2022/08/12 05:53:52;;;;;;;1.55;1.45;;;;;;;30.85;30.05;96517.16;5032800;28;20125;-67
2022/08/12 05:56:21;;;;;;;5.50;1.48;;;;;;;30.01;31.30;96507.19;5032915;28;20136;-67
2022/08/12 05:58:50;;;;;;;2.60;1.50;;;;;;;30.08;31.49;96512.69;5032754;28;20046;-69
2022/08/12 06:01:18;;;;;;;1.70;1.60;;;;;;;30.24;30.94;96508.19;5032699;28;20046;-68
2022/08/12 06:03:46;;;;;;;2.13;1.30;;;;;;;30.02;31.51;96511.59;5032828;28;20107;-67
2022/08/12 06:06:15;;;;;;;3.28;1.70;;;;;;;30.05;31.00;96515.75;5032361;28;20503;-68
2022/08/12 06:08:47;;;;;;;2.95;1.52;;;;;;;29.22;31.66;96511.81;5032842;28;20053;-65
2022/08/12 06:11:16;;;;;;;3.05;1.50;;;;;;;28.66;33.14;96507.34;5032636;28;20128;-66
2022/08/12 06:13:43;;;;;;;3.80;1.60;;;;;;;28.18;33.24;96518.03;5032629;28;20045;-70
2022/08/12 06:16:12;;;;;;;2.17;1.70;;;;;;;27.97;34.26;96516.72;5032675;28;20136;-68
2022/08/12 06:18:42;;;;;;;2.08;1.73;;;;;;;27.94;34.18;96506.31;5032570;28;20107;-67
2022/08/12 06:21:10;;;;;;;2.75;1.67;;;;;;;27.72;34.29;96512.19;5032757;28;20132;-65
2022/08/12 06:23:38;;;;;;;3.55;1.75;;;;;;;27.88;34.36;96505.13;5032472;28;20050;-68
2022/08/12 06:26:06;;;;;;;4.00;1.65;;;;;;;28.04;34.42;96503.44;5032460;28;20506;-67
2022/08/12 06:28:33;;;;;;;4.15;1.50;;;;;;;28.20;33.86;96505.28;5032527;28;20080;-66
2022/08/12 06:31:02;;;;;;;3.17;1.60;;;;;;;28.24;33.43;96503.91;5032577;28;20045;-68
2022/08/12 06:33:29;;;;;;;2.88;1.67;;;;;;;28.03;33.80;96504.44;5032470;28;20049;-67
2022/08/12 06:36:00;;;;;;;3.03;1.80;;;;;;;27.88;33.78;96505.13;5032888;28;20400;-71
2022/08/12 06:38:29;;;;;;;2.45;1.63;;;;;;;27.72;34.14;96506.00;5032465;28;20419;-65
2022/08/12 06:43:43;;;;;;;1.63;1.50;;;;;;;28.16;33.77;96503.91;5036298;28;20052;-65
2022/08/12 06:46:12;;;;;;;4.70;1.40;;;;;;;28.20;33.86;96508.78;5035967;28;20448;-64
2022/08/12 06:48:42;;;;;;;1.90;1.45;;;;;;;28.47;34.38;96498.66;5036126;28;20127;-64
2022/08/12 06:51:11;;;;;;;3.13;1.33;;;;;;;28.93;32.76;96499.00;5035889;28;20046;-66
2022/08/12 06:53:38;;;;;;;5.63;1.40;;;;;;;29.04;32.24;96501.31;5036011;28;20049;-69
2022/08/12 06:56:06;;;;;;;1.88;1.52;;;;;;;29.50;31.39;96500.50;5036125;28;20076;-64
2022/08/12 06:58:36;;;;;;;7.25;2.33;;;;;;;29.90;32.42;96488.78;5035934;28;20446;-67
2022/08/12 07:01:03;;;;;;;3.20;1.42;;;;;;;30.37;30.00;96499.47;5035788;28;20049;-64
2022/08/12 07:03:30;;;;;;;12.05;1.98;;;;;;;30.69;29.78;96496.56;5035704;28;20057;-64
2022/08/12 07:05:59;;;;;;;6.15;1.50;;;;;;;31.18;28.50;96496.97;5035352;28;20111;-67
2022/08/12 07:08:29;;;;;;;2.45;1.30;;;;;;;31.51;28.36;96501.91;5035718;28;20053;-66
2022/08/12 07:10:59;;;;;;;2.33;1.38;;;;;;;31.56;29.13;96498.63;5035798;28;20103;-67
2022/08/12 07:13:28;;;;;;;2.03;1.30;;;;;;;31.90;27.66;96503.28;5035709;28;20049;-64
2022/08/12 07:15:55;;;;;;;1.50;1.40;;;;;;;31.94;27.22;96503.78;5035553;28;20049;-68
2022/08/12 07:18:29;;;;;;;3.20;1.40;;;;;;;32.16;27.06;96506.44;5035488;28;20129;-68
2022/08/12 07:20:57;;;;;;;1.52;1.30;;;;;;;32.10;27.03;96499.09;5035391;28;20050;-66
2022/08/12 07:23:24;;;;;;;3.30;1.42;;;;;;;31.67;28.78;96494.56;5035332;28;20501;-64
2022/08/12 07:25:52;;;;;;;1.40;1.30;;;;;;;31.50;28.30;96492.13;5035198;28;20053;-66
2022/08/12 07:28:22;;;;;;;3.33;1.60;;;;;;;31.64;27.52;96488.50;5035209;28;20057;-65
2022/08/12 07:30:51;;;;;;;3.15;1.52;;;;;;;31.62;27.68;96490.59;5035230;28;20531;-70
2022/08/12 07:33:21;;;;;;;2.05;1.20;;;;;;;31.64;28.04;96496.63;5035189;28;20050;-63
2022/08/12 07:35:49;;;;;;;1.97;1.50;;;;;;;32.06;27.00;96490.56;5035156;28;20137;-66
2022/08/12 07:38:29;;;;;;;1.95;1.50;;;;;;;31.95;26.58;96481.13;5035090;28;20287;-67
2022/08/12 07:41:02;;;;;;;5.80;1.63;;;;;;;31.96;26.65;96485.47;5034994;28;20077;-65
2022/08/12 07:43:29;;;;;;;1.58;1.40;;;;;;;32.30;26.81;96476.78;5035042;28;20101;-69
2022/08/12 07:45:58;;;;;;;3.60;1.50;;;;;;;32.50;26.36;96475.03;5034885;28;20096;-67
2022/08/12 07:48:26;;;;;;;3.53;1.63;;;;;;;32.37;25.50;96474.94;5034949;28;20103;-68
2022/08/12 07:50:54;;;;;;;3.22;1.40;;;;;;;32.18;26.96;96476.47;5034838;28;20050;-68
2022/08/12 07:53:22;;;;;;;1.70;1.33;;;;;;;32.18;25.43;96469.22;5033823;28;20041;-68
2022/08/12 07:55:49;;;;;;;1.92;1.50;;;;;;;31.91;27.51;96474.41;5034733;28;20049;-65
2022/08/12 07:58:18;;;;;;;2.83;1.60;;;;;;;31.92;26.54;96470.69;5034676;28;20045;-69
2022/08/12 08:00:46;;;;;;;2.35;1.25;;;;;;;31.44;26.38;96469.44;5034685;28;20129;-64
2022/08/12 08:03:15;;;;;;;5.65;1.50;;;;;;;30.94;26.30;96462.00;5034541;28;20089;-68
2022/08/12 08:05:45;;;;;;;4.57;1.40;;;;;;;30.64;27.58;96465.56;5034412;28;20045;-70
2022/08/12 08:08:16;;;;;;;1.42;1.33;;;;;;;30.70;28.05;96463.16;5034505;28;20049;-67
2022/08/12 08:10:45;;;;;;;2.85;1.70;;;;;;;30.99;26.47;96461.44;5034464;28;20045;-65
2022/08/12 08:13:12;;;;;;;1.38;1.27;;;;;;;30.67;28.14;96467.06;5034367;28;20053;-67
2022/08/12 08:15:41;;;;;;;5.60;1.40;;;;;;;30.62;26.72;96464.09;5034304;28;20493;-63
2022/08/12 08:18:11;;;;;;;2.97;1.63;;;;;;;30.68;26.89;96454.41;5034486;28;20081;-64
2022/08/12 08:20:39;;;;;;;1.67;1.33;;;;;;;30.76;27.06;96455.16;5034202;28;20128;-65
2022/08/12 08:23:10;;;;;;;2.95;1.48;;;;;;;31.12;26.61;96466.19;5034217;28;20049;-66
2022/08/12 08:25:38;;;;;;;2.58;1.33;;;;;;;31.64;26.30;96452.56;5034174;28;20124;-65
2022/08/12 08:28:11;;;;;;;3.95;1.75;;;;;;;32.05;26.20;96447.50;5034084;28;20053;-64
2022/08/12 08:30:42;;;;;;;4.40;1.40;;;;;;;31.94;26.42;96456.97;5034034;28;20053;-68
2022/08/12 08:33:11;;;;;;;4.28;1.60;;;;;;;31.34;25.53;96458.91;5033986;28;20125;-67
2022/08/12 08:35:39;;;;;;;2.10;1.30;;;;;;;31.02;25.34;96450.25;5034019;28;20427;-67
2022/08/12 08:38:10;;;;;;;4.50;1.67;;;;;;;30.74;25.91;96440.16;5033898;28;20053;-67
2022/08/12 08:43:24;;;;;;;4.07;1.45;;;;;;;30.67;26.57;96440.06;5033909;28;20052;-67
2022/08/12 08:45:54;;;;;;;2.67;1.35;;;;;;;30.95;25.56;96433.16;5033818;28;20139;-64
2022/08/12 08:48:22;;;;;;;;;;;;;;;31.09;25.76;96439.56;5034060;28;20053;-64
2022/08/12 08:50:49;;;;;;;3.10;1.60;;;;;;;31.19;26.15;96433.81;5033714;28;19921;-68
2022/08/12 08:53:17;;;;;;;1.25;1.13;;;;;;;31.69;25.89;96427.66;5033723;28;20053;-65
2022/08/12 08:55:44;;;;;;;1.40;1.30;;;;;;;32.21;24.98;96439.06;5033587;28;20091;-66
2022/08/12 08:58:11;;;;;;;2.92;1.45;;;;;;;32.13;24.86;96439.22;5033565;28;20057;-69
2022/08/12 09:00:39;;;;;;;4.10;1.45;;;;;;;32.13;24.98;96426.53;5033627;28;20045;-70
2022/08/12 09:03:08;;;;;;;1.67;1.38;;;;;;;32.51;25.50;96421.75;5033377;28;20472;-65
2022/08/12 09:05:36;;;;;;;2.65;1.45;;;;;;;32.88;24.56;96419.59;5033080;28;20053;-66
2022/08/12 09:08:06;;;;;;;1.45;1.35;;;;;;;32.33;25.64;96417.69;5033304;28;20045;-65
2022/08/12 09:10:33;;;;;;;2.88;1.60;;;;;;;31.96;26.12;96428.69;5033371;28;20056;-63
2022/08/12 09:15:47;;;;;;;1.38;1.27;;;;;;;31.61;25.84;96421.38;5033493;28;20404;-66
2022/08/12 09:18:17;;;;;;;1.52;1.40;;;;;;;31.18;24.98;96416.78;5033194;28;20487;-64
2022/08/12 09:20:47;;;;;;;;;;;;;;;31.16;25.63;96421.56;5033635;28;20050;-68
2022/08/12 09:23:17;;;;;;;1.65;1.35;;;;;;;31.44;25.08;96403.75;5033167;28;19928;-67
2022/08/12 09:25:47;;;;;;;3.50;1.30;;;;;;;30.63;26.59;96409.09;5033097;28;20103;-65
2022/08/12 09:28:15;;;;;;;3.05;1.23;;;;;;;30.35;27.61;96401.72;5032925;28;20053;-67
2022/08/12 09:30:47;;;;;;;1.27;1.17;;;;;;;30.10;27.03;96410.88;5033215;28;20122;-66
2022/08/12 09:33:15;;;;;;;2.47;1.10;;;;;;;30.35;27.60;96397.16;5033135;28;20491;-66
2022/08/12 09:35:43;;;;;;;2.30;1.75;;;;;;;30.29;27.35;96402.47;5033025;28;20399;-64
2022/08/12 09:38:14;;;;;;;2.15;1.17;;;;;;;30.15;26.25;96396.84;5033053;28;20123;-65
2022/08/12 09:40:42;;;;;;;1.58;1.20;;;;;;;30.35;26.29;96399.88;5033103;28;20099;-66
2022/08/12 09:45:56;;;;;;;1.30;1.20;;;;;;;30.30;26.53;96396.03;5032964;28;20143;-64
2022/08/12 09:48:25;;;;;;;5.47;1.38;;;;;;;30.41;27.46;96400.97;5032939;28;20061;-69
2022/08/12 09:50:53;;;;;;;2.33;1.50;;;;;;;30.39;26.56;96403.00;5032982;28;20056;-65
2022/08/12 09:53:23;;;;;;;1.40;1.30;;;;;;;30.29;26.87;96397.91;5032911;28;20045;-64
2022/08/12 09:55:52;;;;;;;1.65;1.55;;;;;;;30.49;26.68;96398.16;5032853;28;20077;-70
2022/08/12 09:58:27;;;;;;;1.95;1.40;;;;;;;30.61;27.14;96390.41;5032736;28;20056;-65
2022/08/12 10:00:56;;;;;;;3.53;1.20;;;;;;;30.61;26.71;96390.41;5032651;28;20533;-66
2022/08/12 10:03:26;;;;;;;2.45;1.40;;;;;;;30.60;27.45;96399.53;5032877;28;20478;-67
2022/08/12 10:05:53;;;;;;;2.15;1.70;;;;;;;30.87;26.38;96394.47;5032491;28;20041;-64
2022/08/12 10:08:22;;;;;;;1.38;1.27;;;;;;;30.92;26.29;96393.91;5032643;28;20045;-64
2022/08/12 10:13:42;;;;;;;1.55;1.45;;;;;;;30.85;25.97;96390.28;5032810;28;20152;-64
2022/08/12 10:16:16;;;;;;;1.58;1.35;;;;;;;30.88;26.18;96388.03;5034219;28;20056;-65
2022/08/12 10:18:46;;;;;;;1.70;1.60;;;;;;;30.87;25.71;96386.38;5036910;28;20053;-68
2022/08/12 10:21:15;;;;;;;4.47;1.65;;;;;;;30.92;25.83;96395.75;5036571;28;20133;-65
2022/08/12 10:23:44;;;;;;;1.63;1.52;;;;;;;31.15;25.82;96387.44;5036481;28;20042;-65
2022/08/12 10:31:44;;;;;;;1.60;1.30;;;;;;;31.01;25.60;96381.09;5036543;28;20057;-66
2022/08/12 10:34:14;;;;;;;3.42;1.40;;;;;;;30.40;26.81;96385.81;5036281;28;20538;-66
2022/08/12 10:36:42;;;;;;;3.05;1.30;;;;;;;30.50;25.62;96374.72;5036228;28;20052;-65
2022/08/12 10:39:11;;;;;;;3.92;1.27;;;;;;;30.86;25.38;96368.50;5036245;28;20053;-69
2022/08/12 10:44:24;;;;;;;1.67;1.33;;;;;;;31.24;25.22;96358.47;5036231;28;20118;-65
2022/08/12 10:46:51;;;;;;;1.38;1.20;;;;;;;31.31;25.17;96356.66;5035862;28;20053;-67
2022/08/12 10:49:20;;;;;;;2.13;1.40;;;;;;;31.04;24.86;96359.13;5036123;28;20046;-66
2022/08/12 10:51:50;;;;;;;1.58;1.38;;;;;;;30.27;26.21;96357.66;5036141;28;20144;-63
2022/08/12 10:54:18;;;;;;;3.42;1.52;;;;;;;29.84;26.45;96361.00;5036102;28;20050;-66
2022/08/12 10:56:48;;;;;;;1.50;1.30;;;;;;;29.67;26.69;96360.31;5035809;28;20454;-65
2022/08/12 10:59:16;;;;;;;1.60;1.50;;;;;;;29.45;26.87;96345.84;5035912;28;20045;-68
2022/08/12 11:01:43;;;;;;;3.05;1.42;;;;;;;29.55;27.01;96349.16;5035648;28;20057;-66
2022/08/12 11:04:12;;;;;;;3.42;1.45;;;;;;;29.93;26.66;96339.31;5035883;28;20135;-64
2022/08/12 11:06:46;;;;;;;1.35;1.25;;;;;;;30.49;26.82;96341.50;5035266;28;20135;-66
2022/08/12 11:09:17;;;;;;;1.30;1.20;;;;;;;30.67;25.40;96339.41;5017995;28;20063;-64
2022/08/12 11:11:47;;;;;;;1.40;1.20;;;;;;;30.68;25.38;96336.53;5035577;28;20080;-63
2022/08/12 11:14:16;;;;;;;1.88;1.55;;;;;;;30.64;24.68;96344.16;5035637;28;20053;-68
2022/08/12 11:16:45;;;;;;;1.58;1.48;;;;;;;30.46;24.84;96341.88;5035465;28;20046;-66
2022/08/12 11:19:12;;;;;;;1.65;1.55;;;;;;;30.07;25.25;96332.25;5035353;28;20045;-68
2022/08/12 11:21:41;;;;;;;1.60;1.27;;;;;;;29.97;25.48;96332.53;5035417;28;20049;-67
2022/08/12 11:24:08;;;;;;;1.45;1.35;;;;;;;30.04;25.11;96328.09;5035377;28;20049;-68
2022/08/12 11:26:36;;;;;;;3.55;1.45;;;;;;;30.16;24.41;96325.78;5035314;28;20115;-65
2022/08/12 11:29:04;;;;;;;3.65;1.48;;;;;;;30.25;25.22;96321.94;5035188;28;20053;-68
2022/08/12 11:31:31;;;;;;;2.10;1.20;;;;;;;30.42;24.98;96323.56;5035317;28;20103;-64
2022/08/12 11:33:58;;;;;;;1.70;1.27;;;;;;;30.40;24.49;96323.78;5035207;28;20141;-68
2022/08/12 11:36:26;;;;;;;1.50;1.40;;;;;;;30.01;24.82;96312.28;5035379;28;20068;-66
2022/08/12 11:38:55;;;;;;;3.50;1.08;;;;;;;29.95;26.08;96313.03;5035116;28;20140;-63
2022/08/12 11:41:23;;;;;;;2.85;1.35;;;;;;;30.22;25.14;96314.22;5034967;28;20057;-63
2022/08/12 11:43:51;;;;;;;1.85;1.20;;;;;;;30.63;24.63;96314.66;5035000;28;20479;-65
2022/08/12 11:46:19;;;;;;;2.92;1.42;;;;;;;30.85;24.56;96306.63;5034976;28;20049;-65
2022/08/12 11:48:46;;;;;;;4.28;1.67;;;;;;;31.00;24.16;96309.25;5034879;28;20384;-65
2022/08/12 11:51:14;;;;;;;2.80;1.35;;;;;;;31.30;24.26;96300.97;5034803;28;20050;-64
2022/08/12 11:53:45;;;;;;;4.03;1.50;;;;;;;31.62;23.24;96300.59;5034764;28;20385;-63
2022/08/12 11:56:13;;;;;;;1.33;1.23;;;;;;;31.56;23.83;96294.09;5034713;28;20053;-64
2022/08/12 11:58:42;;;;;;;2.90;1.60;;;;;;;31.51;23.63;96297.41;5034780;28;20415;-65
2022/08/12 12:01:12;;;;;;;1.75;1.40;;;;;;;31.45;23.55;96287.38;5034376;28;20045;-67
2022/08/12 12:03:39;;;;;;;1.30;1.20;;;;;;;31.05;24.05;96292.44;5034595;28;20493;-64
2022/08/12 12:06:07;;;;;;;1.33;1.23;;;;;;;30.86;24.65;96292.09;5034324;28;20132;-64
2022/08/12 12:08:34;;;;;;;1.60;1.20;;;;;;;30.52;24.94;96303.34;5034316;28;20080;-65
2022/08/12 12:11:09;;;;;;;1.50;1.40;;;;;;;30.08;25.25;96285.41;5034439;28;20050;-67
2022/08/12 12:13:39;;;;;;;4.10;1.45;;;;;;;29.77;25.39;96287.31;5034480;28;20045;-66
2022/08/12 12:16:07;;;;;;;2.15;1.42;;;;;;;29.60;26.06;96286.66;5034461;28;20049;-66
2022/08/12 12:18:35;;;;;;;1.50;1.35;;;;;;;29.43;26.01;96277.88;5034438;28;20053;-65
2022/08/12 12:21:06;;;;;;;1.60;1.50;;;;;;;29.48;26.90;96267.38;5034216;28;20051;-67
2022/08/12 12:23:34;;;;;;;1.40;1.20;;;;;;;29.75;25.65;96274.00;5034178;28;20045;-67
2022/08/12 12:26:01;;;;;;;2.72;1.30;;;;;;;30.06;25.23;96268.56;5034075;28;20049;-68
2022/08/12 12:28:28;;;;;;;1.60;1.50;;;;;;;30.38;25.16;96258.38;5034161;28;20057;-63
2022/08/12 12:30:57;;;;;;;4.93;1.40;;;;;;;30.51;24.31;96269.31;5034101;28;20054;-66
2022/08/12 12:33:24;;;;;;;4.63;1.40;;;;;;;30.30;24.56;96266.59;5033999;28;20103;-65
2022/08/12 12:35:51;;;;;;;2.42;1.20;;;;;;;30.16;24.39;96265.59;5034226;28;20053;-64
2022/08/12 12:38:19;;;;;;;1.85;1.40;;;;;;;30.15;25.20;96256.66;5033549;28;20072;-66
2022/08/12 12:40:47;;;;;;;2.95;1.20;;;;;;;30.13;25.94;96256.03;5033914;28;20049;-65
2022/08/12 12:43:16;;;;;;;4.47;1.40;;;;;;;30.13;25.43;96256.84;5033981;28;20128;-63
2022/08/12 12:45:49;;;;;;;1.50;1.40;;;;;;;30.24;24.64;96246.63;5033865;28;20049;-68
2022/08/12 12:48:20;;;;;;;3.67;1.30;;;;;;;30.41;25.21;96251.78;5033681;28;20084;-64
2022/08/12 12:51:14;;;;;;;3.10;1.30;;;;;;;30.49;24.05;96249.78;5033629;28;20041;-66
2022/08/12 12:53:37;;;;;;;3.17;1.30;;;;;;;30.47;25.43;96248.31;5033701;28;20076;-65
2022/08/12 12:56:12;;;;;;;2.88;1.50;;;;;;;30.36;25.17;96249.66;5033578;28;20104;-63
2022/08/12 12:58:41;;;;;;;1.30;1.20;;;;;;;30.21;25.11;96250.53;5033541;28;20049;-64
2022/08/12 13:01:09;;;;;;;1.60;1.38;;;;;;;30.01;25.10;96244.91;5033819;28;20049;-67
2022/08/12 13:03:37;;;;;;;1.60;1.50;;;;;;;29.99;25.19;96242.38;5033611;28;20042;-66
2022/08/12 13:06:07;;;;;;;1.77;1.20;;;;;;;29.94;26.10;96239.41;5033295;28;20445;-67
2022/08/12 13:08:34;;;;;;;6.43;1.30;;;;;;;29.95;25.61;96246.47;5033367;28;20049;-69
2022/08/12 13:11:03;;;;;;;1.23;1.13;;;;;;;30.04;24.18;96238.28;5033429;28;20480;-69
2022/08/12 13:13:31;;;;;;;3.05;1.30;;;;;;;30.19;23.84;96231.00;5033342;28;20045;-64
2022/08/12 13:16:00;;;;;;;1.40;1.20;;;;;;;30.39;23.90;96225.00;5033207;28;20487;-66
2022/08/12 13:18:35;;;;;;;2.70;1.50;;;;;;;30.63;24.32;96229.16;5033431;28;20049;-68
2022/08/12 13:21:05;;;;;;;1.70;1.52;;;;;;;30.80;23.49;96230.78;5033329;28;20057;-69
2022/08/12 13:23:34;;;;;;;1.30;1.20;;;;;;;30.87;23.11;96216.31;5033537;28;20041;-66
2022/08/12 13:26:02;;;;;;;1.38;1.27;;;;;;;30.97;21.22;96226.78;5033184;28;20052;-64
2022/08/12 13:28:31;;;;;;;1.38;1.20;;;;;;;30.96;21.97;96229.66;5033015;28;20407;-67
2022/08/12 13:30:59;;;;;;;2.75;1.45;;;;;;;30.86;20.74;96227.31;5033165;28;20103;-66
2022/08/12 13:33:28;;;;;;;1.10;1.00;;;;;;;30.63;21.18;96234.56;5032989;28;20127;-66